sensor_id;sensor_type;location;lat;lon;timestamp;pressure;altitude;pressure_sealevel;temperature;humidity
8069;BME280;4077;43.702;24.896;2023-04-21T00:02:09;98963.81;;;11.73;100.00
8069;BME280;4077;43.702;24.896;2023-04-21T00:04:35;98967.25;;;11.69;100.00
8069;BME280;4077;43.702;24.896;2023-04-21T00:07:00;98969.81;;;11.72;100.00
8069;BME280;4077;43.702;24.896;2023-04-21T00:09:27;98968.13;;;11.58;100.00
8069;BME280;4077;43.702;24.896;2023-04-21T00:11:53;98959.50;;;11.49;100.00
8069;BME280;4077;43.702;24.896;2023-04-21T00:14:18;98957.81;;;11.39;100.00
8069;BME280;4077;43.702;24.896;2023-04-21T00:16:44;98952.63;;;11.27;100.00
8069;BME280;4077;43.702;24.896;2023-04-21T00:19:09;98949.19;;;11.20;100.00
8069;BME280;4077;43.702;24.896;2023-04-21T00:21:38;98955.22;;;11.22;100.00
8069;BME280;4077;43.702;24.896;2023-04-21T00:24:04;98953.50;;;11.21;100.00
8069;BME280;4077;43.702;24.896;2023-04-21T00:26:29;98945.75;;;11.08;100.00
8069;BME280;4077;43.702;24.896;2023-04-21T00:28:55;98957.81;;;11.06;100.00
8069;BME280;4077;43.702;24.896;2023-04-21T00:31:20;98949.19;;;10.93;100.00
8069;BME280;4077;43.702;24.896;2023-04-21T00:33:46;98950.03;;;10.87;100.00
8069;BME280;4077;43.702;24.896;2023-04-21T00:36:11;98943.09;;;10.77;100.00
8069;BME280;4077;43.702;24.896;2023-04-21T00:38:36;98940.53;;;10.71;100.00
8069;BME280;4077;43.702;24.896;2023-04-21T00:41:02;98949.16;;;10.72;100.00
8069;BME280;4077;43.702;24.896;2023-04-21T00:43:27;98941.41;;;10.73;100.00
8069;BME280;4077;43.702;24.896;2023-04-21T00:45:53;98940.53;;;10.68;100.00
8069;BME280;4077;43.702;24.896;2023-04-21T00:48:19;98939.69;;;10.71;100.00
8069;BME280;4077;43.702;24.896;2023-04-21T00:50:44;98936.22;;;10.70;100.00
8069;BME280;4077;43.702;24.896;2023-04-21T00:53:11;98938.81;;;10.64;100.00
8069;BME280;4077;43.702;24.896;2023-04-21T00:55:38;98937.06;;;10.63;100.00
8069;BME280;4077;43.702;24.896;2023-04-21T00:58:03;98935.34;;;10.59;100.00
8069;BME280;4077;43.702;24.896;2023-04-21T01:00:28;98920.72;;;10.52;100.00
8069;BME280;4077;43.702;24.896;2023-04-21T01:02:54;98917.25;;;10.45;100.00
8069;BME280;4077;43.702;24.896;2023-04-21T01:05:21;98924.22;;;10.78;100.00
8069;BME280;4077;43.702;24.896;2023-04-21T01:07:46;98928.47;;;10.61;100.00
8069;BME280;4077;43.702;24.896;2023-04-21T01:10:13;98931.06;;;10.65;100.00
8069;BME280;4077;43.702;24.896;2023-04-21T01:12:45;98932.75;;;10.62;100.00
8069;BME280;4077;43.702;24.896;2023-04-21T01:15:12;98923.31;;;10.64;100.00
8069;BME280;4077;43.702;24.896;2023-04-21T01:17:38;98917.28;;;10.62;100.00
8069;BME280;4077;43.702;24.896;2023-04-21T01:20:07;98916.41;;;10.54;100.00
8069;BME280;4077;43.702;24.896;2023-04-21T01:22:36;98920.72;;;10.58;100.00
8069;BME280;4077;43.702;24.896;2023-04-21T01:25:02;98915.53;;;10.55;100.00
8069;BME280;4077;43.702;24.896;2023-04-21T01:27:28;98927.63;;;10.65;100.00
8069;BME280;4077;43.702;24.896;2023-04-21T01:29:53;98926.75;;;10.66;100.00
8069;BME280;4077;43.702;24.896;2023-04-21T01:32:23;98931.03;;;10.62;100.00
8069;BME280;4077;43.702;24.896;2023-04-21T01:34:49;98935.34;;;10.57;100.00
8069;BME280;4077;43.702;24.896;2023-04-21T01:37:21;98929.31;;;10.55;100.00
8069;BME280;4077;43.702;24.896;2023-04-21T01:39:50;98931.88;;;10.45;100.00
8069;BME280;4077;43.702;24.896;2023-04-21T01:42:18;98929.28;;;10.37;100.00
8069;BME280;4077;43.702;24.896;2023-04-21T01:44:43;98929.28;;;10.45;100.00
8069;BME280;4077;43.702;24.896;2023-04-21T01:47:11;98929.28;;;10.49;100.00
8069;BME280;4077;43.702;24.896;2023-04-21T01:49:36;98931.00;;;10.44;100.00
8069;BME280;4077;43.702;24.896;2023-04-21T01:52:02;98927.56;;;10.48;100.00
8069;BME280;4077;43.702;24.896;2023-04-21T01:54:27;98926.69;;;10.49;100.00
8069;BME280;4077;43.702;24.896;2023-04-21T01:56:53;98924.13;;;10.43;100.00
8069;BME280;4077;43.702;24.896;2023-04-21T01:59:18;98926.72;;;10.48;100.00
8069;BME280;4077;43.702;24.896;2023-04-21T02:01:44;98919.84;;;10.44;100.00
8069;BME280;4077;43.702;24.896;2023-04-21T02:04:09;98916.38;;;10.40;100.00
8069;BME280;4077;43.702;24.896;2023-04-21T02:06:35;98916.38;;;10.45;100.00
8069;BME280;4077;43.702;24.896;2023-04-21T02:09:04;98912.94;;;10.46;100.00
8069;BME280;4077;43.702;24.896;2023-04-21T02:11:30;98918.09;;;10.46;100.00
8069;BME280;4077;43.702;24.896;2023-04-21T02:13:55;98919.84;;;10.53;100.00
8069;BME280;4077;43.702;24.896;2023-04-21T02:16:23;98925.84;;;10.46;100.00
8069;BME280;4077;43.702;24.896;2023-04-21T02:18:52;98914.66;;;10.47;100.00
8069;BME280;4077;43.702;24.896;2023-04-21T02:21:19;98914.66;;;10.48;100.00
8069;BME280;4077;43.702;24.896;2023-04-21T02:23:45;98916.38;;;10.38;100.00
8069;BME280;4077;43.702;24.896;2023-04-21T02:26:11;98918.13;;;10.52;100.00
8069;BME280;4077;43.702;24.896;2023-04-21T02:28:36;98919.81;;;10.42;100.00
8069;BME280;4077;43.702;24.896;2023-04-21T02:31:02;98922.38;;;10.31;100.00
8069;BME280;4077;43.702;24.896;2023-04-21T02:33:27;98919.78;;;10.33;100.00
8069;BME280;4077;43.702;24.896;2023-04-21T02:35:53;98922.41;;;10.45;100.00
8069;BME280;4077;43.702;24.896;2023-04-21T02:38:18;98919.84;;;10.53;100.00
8069;BME280;4077;43.702;24.896;2023-04-21T02:40:43;98918.00;;;10.21;100.00
8069;BME280;4077;43.702;24.896;2023-04-21T02:43:09;98921.44;;;10.20;100.00
8069;BME280;4077;43.702;24.896;2023-04-21T02:45:35;98919.72;;;10.16;100.00
8069;BME280;4077;43.702;24.896;2023-04-21T02:48:05;98904.97;;;9.89;100.00
8069;BME280;4077;43.702;24.896;2023-04-21T02:50:30;98913.53;;;9.88;100.00
8069;BME280;4077;43.702;24.896;2023-04-21T02:52:56;98909.25;;;9.82;100.00
8069;BME280;4077;43.702;24.896;2023-04-21T02:55:22;98916.25;;;10.11;100.00
8069;BME280;4077;43.702;24.896;2023-04-21T02:57:47;98913.63;;;10.05;100.00
8069;BME280;4077;43.702;24.896;2023-04-21T03:00:13;98913.66;;;10.09;100.00
8069;BME280;4077;43.702;24.896;2023-04-21T03:02:39;98919.66;;;10.07;100.00
8069;BME280;4077;43.702;24.896;2023-04-21T03:05:05;98923.06;;;9.97;100.00
8069;BME280;4077;43.702;24.896;2023-04-21T03:07:31;98929.97;;;10.05;100.00
8069;BME280;4077;43.702;24.896;2023-04-21T03:09:56;98924.72;;;9.85;100.00
8069;BME280;4077;43.702;24.896;2023-04-21T03:12:22;98918.63;;;9.73;100.00
8069;BME280;4077;43.702;24.896;2023-04-21T03:14:47;98931.47;;;9.62;100.00
8069;BME280;4077;43.702;24.896;2023-04-21T03:17:12;98927.13;;;9.56;100.00
8069;BME280;4077;43.702;24.896;2023-04-21T03:19:38;98933.13;;;9.57;100.00
8069;BME280;4077;43.702;24.896;2023-04-21T03:22:04;98934.81;;;9.49;100.00
8069;BME280;4077;43.702;24.896;2023-04-21T03:24:30;98945.06;;;9.43;100.00
8069;BME280;4077;43.702;24.896;2023-04-21T03:26:56;98919.22;;;9.27;100.00
8069;BME280;4077;43.702;24.896;2023-04-21T03:29:21;98925.13;;;9.16;100.00
8069;BME280;4077;43.702;24.896;2023-04-21T03:31:47;98927.69;;;9.17;100.00
8069;BME280;4077;43.702;24.896;2023-04-21T03:34:13;98920.81;;;9.13;100.00
8069;BME280;4077;43.702;24.896;2023-04-21T03:36:38;98924.22;;;9.12;100.00
8069;BME280;4077;43.702;24.896;2023-04-21T03:39:03;98932.97;;;9.31;100.00
8069;BME280;4077;43.702;24.896;2023-04-21T03:41:29;98934.63;;;9.21;100.00
8069;BME280;4077;43.702;24.896;2023-04-21T03:43:55;98935.47;;;9.22;100.00
8069;BME280;4077;43.702;24.896;2023-04-21T03:46:21;98927.69;;;9.16;100.00
8069;BME280;4077;43.702;24.896;2023-04-21T03:48:47;98940.56;;;9.19;100.00
8069;BME280;4077;43.702;24.896;2023-04-21T03:51:13;98938.81;;;9.10;100.00
8069;BME280;4077;43.702;24.896;2023-04-21T03:53:38;98944.72;;;9.00;100.00
8069;BME280;4077;43.702;24.896;2023-04-21T03:56:04;98945.53;;;8.96;100.00
8069;BME280;4077;43.702;24.896;2023-04-21T03:58:30;98951.53;;;8.95;100.00
8069;BME280;4077;43.702;24.896;2023-04-21T04:00:55;98953.31;;;9.02;100.00
8069;BME280;4077;43.702;24.896;2023-04-21T04:03:21;98949.88;;;9.00;100.00
8069;BME280;4077;43.702;24.896;2023-04-21T04:05:46;98966.25;;;9.11;100.00
8069;BME280;4077;43.702;24.896;2023-04-21T04:08:12;98967.09;;;9.07;100.00
8069;BME280;4077;43.702;24.896;2023-04-21T04:10:37;98979.19;;;9.17;100.00
8069;BME280;4077;43.702;24.896;2023-04-21T04:13:03;98978.44;;;9.27;100.00
8069;BME280;4077;43.702;24.896;2023-04-21T04:15:28;98985.19;;;9.15;100.00
8069;BME280;4077;43.702;24.896;2023-04-21T04:17:54;98988.00;;;9.41;100.00
8069;BME280;4077;43.702;24.896;2023-04-21T04:20:19;98981.19;;;9.49;100.00
8069;BME280;4077;43.702;24.896;2023-04-21T04:22:45;98988.06;;;9.53;100.00
8069;BME280;4077;43.702;24.896;2023-04-21T04:25:10;98999.41;;;9.76;100.00
8069;BME280;4077;43.702;24.896;2023-04-21T04:27:37;98999.47;;;9.84;100.00
8069;BME280;4077;43.702;24.896;2023-04-21T04:30:03;99004.66;;;9.89;100.00
8069;BME280;4077;43.702;24.896;2023-04-21T04:32:29;99015.91;;;10.03;100.00
8069;BME280;4077;43.702;24.896;2023-04-21T04:34:55;99012.50;;;10.13;100.00
8069;BME280;4077;43.702;24.896;2023-04-21T04:37:21;99012.63;;;10.25;100.00
8069;BME280;4077;43.702;24.896;2023-04-21T04:39:47;99017.81;;;10.30;100.00
8069;BME280;4077;43.702;24.896;2023-04-21T04:42:13;99029.88;;;10.41;100.00
8069;BME280;4077;43.702;24.896;2023-04-21T04:44:38;99031.66;;;10.52;100.00
8069;BME280;4077;43.702;24.896;2023-04-21T04:47:05;99039.47;;;10.65;100.00
8069;BME280;4077;43.702;24.896;2023-04-21T04:49:31;99033.47;;;10.77;100.00
8069;BME280;4077;43.702;24.896;2023-04-21T04:51:57;99045.50;;;10.72;100.00
8069;BME280;4077;43.702;24.896;2023-04-21T04:54:24;99041.97;;;10.56;100.00
8069;BME280;4077;43.702;24.896;2023-04-21T04:56:49;99047.28;;;10.88;100.00
8069;BME280;4077;43.702;24.896;2023-04-21T04:59:15;99050.72;;;10.89;100.00
8069;BME280;4077;43.702;24.896;2023-04-21T05:01:40;99053.31;;;10.87;100.00
8069;BME280;4077;43.702;24.896;2023-04-21T05:04:06;99052.41;;;10.73;100.00
8069;BME280;4077;43.702;24.896;2023-04-21T05:06:31;99050.69;;;10.78;100.00
8069;BME280;4077;43.702;24.896;2023-04-21T05:08:57;99055.03;;;10.85;100.00
8069;BME280;4077;43.702;24.896;2023-04-21T05:11:22;99048.97;;;10.80;100.00
8069;BME280;4077;43.702;24.896;2023-04-21T05:13:48;99055.84;;;10.75;100.00
8069;BME280;4077;43.702;24.896;2023-04-21T05:16:13;99052.41;;;10.73;100.00
8069;BME280;4077;43.702;24.896;2023-04-21T05:18:39;99051.50;;;10.68;100.00
8069;BME280;4077;43.702;24.896;2023-04-21T05:21:04;99058.41;;;10.72;100.00
8069;BME280;4077;43.702;24.896;2023-04-21T05:23:30;99057.56;;;10.72;100.00
8069;BME280;4077;43.702;24.896;2023-04-21T05:25:55;99061.88;;;10.80;100.00
8069;BME280;4077;43.702;24.896;2023-04-21T05:28:21;99072.22;;;10.83;100.00
8069;BME280;4077;43.702;24.896;2023-04-21T05:30:47;99065.28;;;10.76;100.00
8069;BME280;4077;43.702;24.896;2023-04-21T05:33:13;99067.91;;;10.82;100.00
8069;BME280;4077;43.702;24.896;2023-04-21T05:35:38;99067.13;;;11.02;100.00
8069;BME280;4077;43.702;24.896;2023-04-21T05:38:04;99080.88;;;11.02;100.00
8069;BME280;4077;43.702;24.896;2023-04-21T05:40:30;99075.69;;;10.88;100.00
8069;BME280;4077;43.702;24.896;2023-04-21T05:42:55;99078.31;;;11.04;100.00
8069;BME280;4077;43.702;24.896;2023-04-21T05:45:21;99076.63;;;11.15;100.00
8069;BME280;4077;43.702;24.896;2023-04-21T05:47:46;99080.91;;;11.10;100.00
8069;BME280;4077;43.702;24.896;2023-04-21T05:50:12;99077.50;;;11.24;100.00
8069;BME280;4077;43.702;24.896;2023-04-21T05:52:37;99073.19;;;11.31;100.00
8069;BME280;4077;43.702;24.896;2023-04-21T05:55:03;99083.53;;;11.30;100.00
8069;BME280;4077;43.702;24.896;2023-04-21T05:57:29;99086.97;;;11.21;100.00
8069;BME280;4077;43.702;24.896;2023-04-21T05:59:54;99079.22;;;11.24;100.00
8069;BME280;4077;43.702;24.896;2023-04-21T06:02:21;99083.56;;;11.34;100.00
8069;BME280;4077;43.702;24.896;2023-04-21T06:04:46;99081.00;;;11.56;100.00
8069;BME280;4077;43.702;24.896;2023-04-21T06:07:11;99086.16;;;11.69;100.00
8069;BME280;4077;43.702;24.896;2023-04-21T06:09:40;99094.84;;;11.82;100.00
8069;BME280;4077;43.702;24.896;2023-04-21T06:12:06;99095.69;;;11.81;100.00
8069;BME280;4077;43.702;24.896;2023-04-21T06:14:32;99084.50;;;11.81;100.00
8069;BME280;4077;43.702;24.896;2023-04-21T06:16:57;99090.53;;;11.81;100.00
8069;BME280;4077;43.702;24.896;2023-04-21T06:19:23;99095.69;;;11.84;100.00
8069;BME280;4077;43.702;24.896;2023-04-21T06:21:48;99095.69;;;11.86;100.00
8069;BME280;4077;43.702;24.896;2023-04-21T06:24:14;99093.06;;;11.76;100.00
8069;BME280;4077;43.702;24.896;2023-04-21T06:26:40;99089.59;;;11.71;100.00
8069;BME280;4077;43.702;24.896;2023-04-21T06:29:05;99085.28;;;11.57;100.00
8069;BME280;4077;43.702;24.896;2023-04-21T06:31:31;99095.63;;;11.66;100.00
8069;BME280;4077;43.702;24.896;2023-04-21T06:33:56;99097.38;;;11.67;100.00
8069;BME280;4077;43.702;24.896;2023-04-21T06:36:21;99102.56;;;11.76;100.00
8069;BME280;4077;43.702;24.896;2023-04-21T06:38:47;99093.94;;;11.86;100.00
8069;BME280;4077;43.702;24.896;2023-04-21T06:41:13;99095.66;;;12.12;100.00
8069;BME280;4077;43.702;24.896;2023-04-21T06:43:39;99095.66;;;12.30;100.00
8069;BME280;4077;43.702;24.896;2023-04-21T06:46:05;99107.66;;;12.52;100.00
8069;BME280;4077;43.702;24.896;2023-04-21T06:48:31;99116.22;;;12.76;100.00
8069;BME280;4077;43.702;24.896;2023-04-21T06:50:56;99113.53;;;13.02;100.00
8069;BME280;4077;43.702;24.896;2023-04-21T06:53:22;99112.56;;;13.29;100.00
8069;BME280;4077;43.702;24.896;2023-04-21T06:55:47;99116.06;;;13.19;100.00
8069;BME280;4077;43.702;24.896;2023-04-21T06:58:13;99127.28;;;13.16;100.00
8069;BME280;4077;43.702;24.896;2023-04-21T07:00:40;99129.16;;;12.85;100.00
8069;BME280;4077;43.702;24.896;2023-04-21T07:03:05;99098.22;;;12.27;100.00
8069;BME280;4077;43.702;24.896;2023-04-21T07:05:31;99119.75;;;12.41;100.00
8069;BME280;4077;43.702;24.896;2023-04-21T07:07:56;99124.88;;;12.69;100.00
8069;BME280;4077;43.702;24.896;2023-04-21T07:10:27;99128.25;;;12.98;100.00
8069;BME280;4077;43.702;24.896;2023-04-21T07:12:53;99132.47;;;13.21;100.00
8069;BME280;4077;43.702;24.896;2023-04-21T07:15:19;99134.19;;;13.26;100.00
8069;BME280;4077;43.702;24.896;2023-04-21T07:17:45;99137.63;;;13.16;100.00
8069;BME280;4077;43.702;24.896;2023-04-21T07:20:10;99152.38;;;13.12;100.00
8069;BME280;4077;43.702;24.896;2023-04-21T07:22:36;99144.56;;;13.15;100.00
8069;BME280;4077;43.702;24.896;2023-04-21T07:25:02;99119.56;;;13.05;100.00
8069;BME280;4077;43.702;24.896;2023-04-21T07:27:32;99150.59;;;13.24;100.00
8069;BME280;4077;43.702;24.896;2023-04-21T07:29:58;99142.78;;;13.30;100.00
8069;BME280;4077;43.702;24.896;2023-04-21T07:32:25;99135.94;;;13.15;100.00
8069;BME280;4077;43.702;24.896;2023-04-21T07:34:50;99135.97;;;13.06;100.00
8069;BME280;4077;43.702;24.896;2023-04-21T07:37:17;99148.03;;;13.10;100.00
8069;BME280;4077;43.702;24.896;2023-04-21T07:39:42;99149.00;;;12.92;100.00
8069;BME280;4077;43.702;24.896;2023-04-21T07:42:07;99149.91;;;12.68;100.00
8069;BME280;4077;43.702;24.896;2023-04-21T07:44:34;99149.03;;;12.77;100.00
8069;BME280;4077;43.702;24.896;2023-04-21T07:46:59;99145.59;;;12.63;100.00
8069;BME280;4077;43.702;24.896;2023-04-21T07:49:25;99161.16;;;12.66;100.00
8069;BME280;4077;43.702;24.896;2023-04-21T07:51:50;99167.16;;;12.75;100.00
8069;BME280;4077;43.702;24.896;2023-04-21T07:54:16;99169.75;;;12.74;100.00
8069;BME280;4077;43.702;24.896;2023-04-21T07:56:41;99166.31;;;12.78;100.00
8069;BME280;4077;43.702;24.896;2023-04-21T07:59:07;99170.66;;;12.70;100.00
8069;BME280;4077;43.702;24.896;2023-04-21T08:01:32;99174.91;;;12.75;100.00
8069;BME280;4077;43.702;24.896;2023-04-21T08:03:58;99168.94;;;12.49;100.00
8069;BME280;4077;43.702;24.896;2023-04-21T08:06:23;99170.69;;;12.42;100.00
8069;BME280;4077;43.702;24.896;2023-04-21T08:08:49;99171.53;;;12.47;100.00
8069;BME280;4077;43.702;24.896;2023-04-21T08:11:15;99173.25;;;12.48;100.00
8069;BME280;4077;43.702;24.896;2023-04-21T08:13:40;99170.66;;;12.59;100.00
8069;BME280;4077;43.702;24.896;2023-04-21T08:16:05;99173.22;;;12.67;100.00
8069;BME280;4077;43.702;24.896;2023-04-21T08:18:31;99168.03;;;12.73;100.00
8069;BME280;4077;43.702;24.896;2023-04-21T08:20:57;99173.19;;;12.82;100.00
8069;BME280;4077;43.702;24.896;2023-04-21T08:23:22;99170.53;;;13.02;100.00
8069;BME280;4077;43.702;24.896;2023-04-21T08:25:48;99180.84;;;13.15;100.00
8069;BME280;4077;43.702;24.896;2023-04-21T08:28:13;99180.81;;;13.31;100.00
8069;BME280;4077;43.702;24.896;2023-04-21T08:30:40;99179.09;;;13.16;100.00
8069;BME280;4077;43.702;24.896;2023-04-21T08:33:06;99175.66;;;13.14;100.00
8069;BME280;4077;43.702;24.896;2023-04-21T08:35:34;99180.03;;;13.04;100.00
8069;BME280;4077;43.702;24.896;2023-04-21T08:38:00;99176.56;;;13.08;100.00
8069;BME280;4077;43.702;24.896;2023-04-21T08:40:31;99186.84;;;13.39;100.00
8069;BME280;4077;43.702;24.896;2023-04-21T08:42:57;99180.72;;;13.52;100.00
8069;BME280;4077;43.702;24.896;2023-04-21T08:45:23;99180.63;;;13.64;100.00
8069;BME280;4077;43.702;24.896;2023-04-21T08:47:49;99184.09;;;13.63;100.00
8069;BME280;4077;43.702;24.896;2023-04-21T08:50:14;99162.56;;;13.52;100.00
8069;BME280;4077;43.702;24.896;2023-04-21T08:52:40;99178.03;;;13.64;100.00
8069;BME280;4077;43.702;24.896;2023-04-21T08:55:06;99172.97;;;13.46;100.00
8069;BME280;4077;43.702;24.896;2023-04-21T08:57:32;99178.16;;;13.43;100.00
8069;BME280;4077;43.702;24.896;2023-04-21T08:59:57;99166.97;;;13.33;100.00
8069;BME280;4077;43.702;24.896;2023-04-21T09:02:22;99173.94;;;13.22;100.00
8069;BME280;4077;43.702;24.896;2023-04-21T09:04:50;99177.38;;;13.24;100.00
8069;BME280;4077;43.702;24.896;2023-04-21T09:07:33;99167.91;;;13.22;100.00
8069;BME280;4077;43.702;24.896;2023-04-21T09:10:00;99175.66;;;13.17;100.00
8069;BME280;4077;43.702;24.896;2023-04-21T09:12:26;99173.94;;;13.25;100.00
8069;BME280;4077;43.702;24.896;2023-04-21T09:14:52;99171.34;;;13.21;100.00
8069;BME280;4077;43.702;24.896;2023-04-21T09:17:21;99174.72;;;13.41;100.00
8069;BME280;4077;43.702;24.896;2023-04-21T09:19:46;99166.97;;;13.39;100.00
8069;BME280;4077;43.702;24.896;2023-04-21T09:22:16;99172.84;;;13.67;100.00
8069;BME280;4077;43.702;24.896;2023-04-21T09:24:48;99160.66;;;13.79;100.00
8069;BME280;4077;43.702;24.896;2023-04-21T09:27:15;99172.63;;;13.98;100.00
8069;BME280;4077;43.702;24.896;2023-04-21T09:29:50;99176.78;;;14.22;100.00
8069;BME280;4077;43.702;24.896;2023-04-21T09:32:17;99175.00;;;14.26;100.00
8069;BME280;4077;43.702;24.896;2023-04-21T09:34:43;99178.41;;;14.31;100.00
8069;BME280;4077;43.702;24.896;2023-04-21T09:37:10;99177.50;;;14.38;100.00
8069;BME280;4077;43.702;24.896;2023-04-21T09:39:35;99174.81;;;14.45;100.00
8069;BME280;4077;43.702;24.896;2023-04-21T09:42:01;99177.34;;;14.58;100.00
8069;BME280;4077;43.702;24.896;2023-04-21T09:44:27;99170.31;;;14.67;100.00
8069;BME280;4077;43.702;24.896;2023-04-21T09:47:10;99176.97;;;14.93;100.00
8069;BME280;4077;43.702;24.896;2023-04-21T09:49:38;99171.50;;;15.16;100.00
8069;BME280;4077;43.702;24.896;2023-04-21T09:52:09;99163.50;;;15.29;100.00
8069;BME280;4077;43.702;24.896;2023-04-21T09:54:35;99166.13;;;15.31;100.00
8069;BME280;4077;43.702;24.896;2023-04-21T09:57:03;99167.09;;;15.24;100.00
8069;BME280;4077;43.702;24.896;2023-04-21T09:59:39;99173.13;;;15.24;100.00
8069;BME280;4077;43.702;24.896;2023-04-21T10:02:06;99162.88;;;15.12;100.00
8069;BME280;4077;43.702;24.896;2023-04-21T10:04:33;99169.84;;;15.10;100.00
8069;BME280;4077;43.702;24.896;2023-04-21T10:06:59;99166.38;;;15.11;100.00
8069;BME280;4077;43.702;24.896;2023-04-21T10:09:30;99165.47;;;15.12;100.00
8069;BME280;4077;43.702;24.896;2023-04-21T10:11:59;99167.69;;;15.43;100.00
8069;BME280;4077;43.702;24.896;2023-04-21T10:14:26;99169.78;;;15.81;100.00
8069;BME280;4077;43.702;24.896;2023-04-21T10:17:06;99174.38;;;16.21;100.00
8069;BME280;4077;43.702;24.896;2023-04-21T10:19:35;99166.66;;;16.14;100.00
8069;BME280;4077;43.702;24.896;2023-04-21T10:22:09;99172.72;;;16.15;100.00
8069;BME280;4077;43.702;24.896;2023-04-21T10:24:38;99179.63;;;16.18;100.00
8069;BME280;4077;43.702;24.896;2023-04-21T10:27:08;99171.91;;;16.13;100.00
8069;BME280;4077;43.702;24.896;2023-04-21T10:29:34;99173.34;;;16.29;100.00
8069;BME280;4077;43.702;24.896;2023-04-21T10:31:59;99166.97;;;16.47;100.00
8069;BME280;4077;43.702;24.896;2023-04-21T10:39:30;99160.16;;;16.38;100.00
8069;BME280;4077;43.702;24.896;2023-04-21T10:42:23;99158.38;;;16.42;100.00
8069;BME280;4077;43.702;24.896;2023-04-21T10:47:45;99170.16;;;16.63;100.00
8069;BME280;4077;43.702;24.896;2023-04-21T10:52:43;99167.06;;;16.90;100.00
8069;BME280;4077;43.702;24.896;2023-04-21T10:55:09;99168.63;;;16.99;100.00
8069;BME280;4077;43.702;24.896;2023-04-21T10:57:39;99180.69;;;17.05;100.00
8069;BME280;4077;43.702;24.896;2023-04-21T11:00:06;99170.50;;;16.92;100.00
8069;BME280;4077;43.702;24.896;2023-04-21T11:02:33;99178.25;;;16.97;100.00
8069;BME280;4077;43.702;24.896;2023-04-21T11:05:00;99162.94;;;17.22;100.00
8069;BME280;4077;43.702;24.896;2023-04-21T11:07:27;99169.22;;;17.54;100.00
8069;BME280;4077;43.702;24.896;2023-04-21T11:10:06;99173.72;;;17.87;100.00
8069;BME280;4077;43.702;24.896;2023-04-21T11:12:34;99177.53;;;18.10;100.00
8069;BME280;4077;43.702;24.896;2023-04-21T11:15:09;99176.25;;;18.62;98.99
8069;BME280;4077;43.702;24.896;2023-04-21T11:17:35;99179.22;;;18.82;93.00
8069;BME280;4077;43.702;24.896;2023-04-21T11:20:04;99174.53;;;18.93;90.00
8069;BME280;4077;43.702;24.896;2023-04-21T11:22:31;99173.06;;;18.83;87.03
8069;BME280;4077;43.702;24.896;2023-04-21T11:24:57;99166.91;;;18.51;84.68
8069;BME280;4077;43.702;24.896;2023-04-21T11:27:26;99170.88;;;18.32;85.24
8069;BME280;4077;43.702;24.896;2023-04-21T11:29:51;99160.91;;;18.14;83.35
8069;BME280;4077;43.702;24.896;2023-04-21T11:32:17;99172.16;;;18.16;81.59
8069;BME280;4077;43.702;24.896;2023-04-21T11:34:44;99168.28;;;17.96;76.76
8069;BME280;4077;43.702;24.896;2023-04-21T11:37:22;99156.38;;;17.85;73.79
8069;BME280;4077;43.702;24.896;2023-04-21T11:39:47;99162.78;;;17.71;70.55
8069;BME280;4077;43.702;24.896;2023-04-21T11:42:19;99159.38;;;17.66;68.35
8069;BME280;4077;43.702;24.896;2023-04-21T11:44:45;99160.22;;;17.67;64.73
8069;BME280;4077;43.702;24.896;2023-04-21T11:47:12;99162.13;;;17.60;67.87
8069;BME280;4077;43.702;24.896;2023-04-21T11:49:46;99151.59;;;17.65;67.18
8069;BME280;4077;43.702;24.896;2023-04-21T11:52:29;99161.72;;;17.80;66.99
8069;BME280;4077;43.702;24.896;2023-04-21T11:54:59;99158.00;;;17.89;60.82
8069;BME280;4077;43.702;24.896;2023-04-21T11:57:26;99154.16;;;18.05;61.42
8069;BME280;4077;43.702;24.896;2023-04-21T11:59:52;99153.97;;;18.13;59.22
8069;BME280;4077;43.702;24.896;2023-04-21T12:02:23;99161.47;;;18.26;57.69
8069;BME280;4077;43.702;24.896;2023-04-21T12:04:59;99163.94;;;18.31;60.04
8069;BME280;4077;43.702;24.896;2023-04-21T12:07:25;99158.25;;;18.15;59.60
8069;BME280;4077;43.702;24.896;2023-04-21T12:09:52;99166.88;;;18.19;60.65
8069;BME280;4077;43.702;24.896;2023-04-21T12:12:18;99152.56;;;17.99;54.86
8069;BME280;4077;43.702;24.896;2023-04-21T12:14:44;99153.97;;;18.13;56.36
8069;BME280;4077;43.702;24.896;2023-04-21T12:17:09;99161.88;;;18.10;53.46
8069;BME280;4077;43.702;24.896;2023-04-21T12:19:37;99150.31;;;18.20;54.67
8069;BME280;4077;43.702;24.896;2023-04-21T12:22:15;99156.53;;;18.14;55.78
8069;BME280;4077;43.702;24.896;2023-04-21T12:24:42;99150.47;;;18.14;56.91
8069;BME280;4077;43.702;24.896;2023-04-21T12:27:08;99150.50;;;18.11;57.32
8069;BME280;4077;43.702;24.896;2023-04-21T12:29:34;99139.50;;;17.99;56.72
8069;BME280;4077;43.702;24.896;2023-04-21T12:32:01;99134.22;;;18.01;57.85
8069;BME280;4077;43.702;24.896;2023-04-21T12:34:27;99123.06;;;17.94;57.93
8069;BME280;4077;43.702;24.896;2023-04-21T12:36:52;99131.00;;;17.91;58.05
8069;BME280;4077;43.702;24.896;2023-04-21T12:39:18;99126.88;;;17.81;58.07
8069;BME280;4077;43.702;24.896;2023-04-21T12:41:44;99121.50;;;17.87;59.15
8069;BME280;4077;43.702;24.896;2023-04-21T12:44:11;99117.56;;;18.07;58.76
8069;BME280;4077;43.702;24.896;2023-04-21T12:46:37;99129.47;;;18.17;57.93
8069;BME280;4077;43.702;24.896;2023-04-21T12:49:02;99129.16;;;18.29;56.09
8069;BME280;4077;43.702;24.896;2023-04-21T12:51:30;99131.66;;;17.98;55.35
8069;BME280;4077;43.702;24.896;2023-04-21T12:53:56;99127.75;;;18.16;54.87
8069;BME280;4077;43.702;24.896;2023-04-21T12:56:21;99126.56;;;18.29;56.23
8069;BME280;4077;43.702;24.896;2023-04-21T12:58:47;99127.28;;;18.34;56.56
8069;BME280;4077;43.702;24.896;2023-04-21T13:01:12;99136.09;;;18.30;55.54
8069;BME280;4077;43.702;24.896;2023-04-21T13:03:40;99130.81;;;18.33;55.99
8069;BME280;4077;43.702;24.896;2023-04-21T13:06:06;99137.75;;;18.34;56.35
8069;BME280;4077;43.702;24.896;2023-04-21T13:08:31;99125.69;;;18.28;56.70
8069;BME280;4077;43.702;24.896;2023-04-21T13:10:57;99132.69;;;18.28;56.33